sensor_id;sensor_type;location;lat;lon;timestamp;P1;durP1;ratioP1;P2;durP2;ratioP2
11123;SDS011;5616;42.692;23.312;2024-01-25T00:01:30;30.77;;;16.52;;
11123;SDS011;5616;42.692;23.312;2024-01-25T00:03:56;31.98;;;15.88;;
11123;SDS011;5616;42.692;23.312;2024-01-25T00:06:21;25.08;;;15.43;;
11123;SDS011;5616;42.692;23.312;2024-01-25T00:08:47;29.80;;;14.30;;
11123;SDS011;5616;42.692;23.312;2024-01-25T00:11:13;30.00;;;15.77;;
11123;SDS011;5616;42.692;23.312;2024-01-25T00:13:38;30.13;;;16.05;;
11123;SDS011;5616;42.692;23.312;2024-01-25T00:16:04;33.55;;;15.43;;
11123;SDS011;5616;42.692;23.312;2024-01-25T00:18:30;28.20;;;15.18;;
11123;SDS011;5616;42.692;23.312;2024-01-25T00:20:56;26.65;;;14.98;;
11123;SDS011;5616;42.692;23.312;2024-01-25T00:23:21;29.27;;;17.38;;
11123;SDS011;5616;42.692;23.312;2024-01-25T00:25:47;29.75;;;15.48;;
11123;SDS011;5616;42.692;23.312;2024-01-25T00:28:12;28.90;;;14.70;;
11123;SDS011;5616;42.692;23.312;2024-01-25T00:30:38;32.15;;;13.43;;
11123;SDS011;5616;42.692;23.312;2024-01-25T00:33:04;25.38;;;14.10;;
11123;SDS011;5616;42.692;23.312;2024-01-25T00:35:30;24.17;;;14.43;;
11123;SDS011;5616;42.692;23.312;2024-01-25T00:37:56;29.52;;;14.77;;
11123;SDS011;5616;42.692;23.312;2024-01-25T00:40:21;26.35;;;14.43;;
11123;SDS011;5616;42.692;23.312;2024-01-25T00:42:47;28.05;;;15.07;;
11123;SDS011;5616;42.692;23.312;2024-01-25T00:45:19;26.73;;;14.05;;
11123;SDS011;5616;42.692;23.312;2024-01-25T00:47:46;26.63;;;14.02;;
11123;SDS011;5616;42.692;23.312;2024-01-25T00:50:12;24.52;;;12.68;;
11123;SDS011;5616;42.692;23.312;2024-01-25T00:52:38;24.20;;;13.20;;
11123;SDS011;5616;42.692;23.312;2024-01-25T00:55:04;23.83;;;11.95;;
11123;SDS011;5616;42.692;23.312;2024-01-25T00:57:30;24.50;;;12.80;;
11123;SDS011;5616;42.692;23.312;2024-01-25T00:59:56;23.67;;;14.23;;
11123;SDS011;5616;42.692;23.312;2024-01-25T01:02:22;27.98;;;15.30;;
11123;SDS011;5616;42.692;23.312;2024-01-25T01:04:47;20.40;;;12.02;;
11123;SDS011;5616;42.692;23.312;2024-01-25T01:07:14;19.13;;;11.90;;
11123;SDS011;5616;42.692;23.312;2024-01-25T01:09:40;25.25;;;12.85;;
11123;SDS011;5616;42.692;23.312;2024-01-25T01:12:06;23.05;;;11.43;;
11123;SDS011;5616;42.692;23.312;2024-01-25T01:14:32;23.35;;;13.00;;
11123;SDS011;5616;42.692;23.312;2024-01-25T01:16:58;17.55;;;10.57;;
11123;SDS011;5616;42.692;23.312;2024-01-25T01:19:23;16.52;;;9.27;;
11123;SDS011;5616;42.692;23.312;2024-01-25T01:21:49;11.57;;;7.65;;
11123;SDS011;5616;42.692;23.312;2024-01-25T01:24:14;13.50;;;7.68;;
11123;SDS011;5616;42.692;23.312;2024-01-25T01:26:40;14.43;;;8.30;;
11123;SDS011;5616;42.692;23.312;2024-01-25T01:29:07;15.90;;;9.63;;
11123;SDS011;5616;42.692;23.312;2024-01-25T01:31:33;15.32;;;10.07;;
11123;SDS011;5616;42.692;23.312;2024-01-25T01:33:58;15.55;;;8.70;;
11123;SDS011;5616;42.692;23.312;2024-01-25T01:36:24;14.80;;;9.15;;
11123;SDS011;5616;42.692;23.312;2024-01-25T01:38:49;11.80;;;8.35;;
11123;SDS011;5616;42.692;23.312;2024-01-25T01:41:15;13.00;;;7.63;;
11123;SDS011;5616;42.692;23.312;2024-01-25T01:43:40;10.52;;;7.75;;
11123;SDS011;5616;42.692;23.312;2024-01-25T01:46:10;13.07;;;7.68;;
11123;SDS011;5616;42.692;23.312;2024-01-25T01:48:38;12.13;;;8.38;;
11123;SDS011;5616;42.692;23.312;2024-01-25T01:51:04;9.73;;;5.82;;
11123;SDS011;5616;42.692;23.312;2024-01-25T01:53:30;9.98;;;7.18;;
11123;SDS011;5616;42.692;23.312;2024-01-25T01:55:57;14.50;;;7.22;;
11123;SDS011;5616;42.692;23.312;2024-01-25T01:58:23;13.20;;;7.63;;
11123;SDS011;5616;42.692;23.312;2024-01-25T02:00:50;12.07;;;7.07;;
11123;SDS011;5616;42.692;23.312;2024-01-25T02:03:16;13.13;;;7.55;;
11123;SDS011;5616;42.692;23.312;2024-01-25T02:05:41;10.10;;;6.93;;
11123;SDS011;5616;42.692;23.312;2024-01-25T02:08:07;13.40;;;7.95;;
11123;SDS011;5616;42.692;23.312;2024-01-25T02:10:34;11.63;;;6.47;;
11123;SDS011;5616;42.692;23.312;2024-01-25T02:12:59;12.40;;;7.82;;
11123;SDS011;5616;42.692;23.312;2024-01-25T02:15:25;9.57;;;7.25;;
11123;SDS011;5616;42.692;23.312;2024-01-25T02:17:50;10.65;;;7.18;;
11123;SDS011;5616;42.692;23.312;2024-01-25T02:20:17;13.98;;;8.10;;
11123;SDS011;5616;42.692;23.312;2024-01-25T02:22:43;14.73;;;7.82;;
11123;SDS011;5616;42.692;23.312;2024-01-25T02:25:09;9.60;;;7.05;;
11123;SDS011;5616;42.692;23.312;2024-01-25T02:27:34;13.25;;;8.18;;
11123;SDS011;5616;42.692;23.312;2024-01-25T02:30:04;13.38;;;8.73;;
11123;SDS011;5616;42.692;23.312;2024-01-25T02:32:31;13.23;;;8.52;;
11123;SDS011;5616;42.692;23.312;2024-01-25T02:34:56;16.67;;;8.07;;
11123;SDS011;5616;42.692;23.312;2024-01-25T02:37:21;12.85;;;7.78;;
11123;SDS011;5616;42.692;23.312;2024-01-25T02:39:47;12.68;;;8.30;;
11123;SDS011;5616;42.692;23.312;2024-01-25T02:42:12;12.70;;;7.50;;
11123;SDS011;5616;42.692;23.312;2024-01-25T02:44:39;9.32;;;6.65;;
11123;SDS011;5616;42.692;23.312;2024-01-25T02:47:04;6.97;;;5.15;;
11123;SDS011;5616;42.692;23.312;2024-01-25T02:49:30;7.35;;;4.90;;
11123;SDS011;5616;42.692;23.312;2024-01-25T02:51:55;4.32;;;2.85;;
11123;SDS011;5616;42.692;23.312;2024-01-25T02:54:21;3.42;;;3.05;;
11123;SDS011;5616;42.692;23.312;2024-01-25T02:56:46;2.97;;;2.70;;
11123;SDS011;5616;42.692;23.312;2024-01-25T02:59:12;3.45;;;2.67;;
11123;SDS011;5616;42.692;23.312;2024-01-25T03:01:40;2.38;;;2.17;;
11123;SDS011;5616;42.692;23.312;2024-01-25T03:04:07;2.30;;;1.77;;
11123;SDS011;5616;42.692;23.312;2024-01-25T03:06:32;1.70;;;1.60;;
11123;SDS011;5616;42.692;23.312;2024-01-25T03:08:58;2.95;;;1.80;;
11123;SDS011;5616;42.692;23.312;2024-01-25T03:11:24;1.52;;;1.42;;
11123;SDS011;5616;42.692;23.312;2024-01-25T03:13:49;2.22;;;1.75;;
11123;SDS011;5616;42.692;23.312;2024-01-25T03:16:14;1.83;;;1.73;;
11123;SDS011;5616;42.692;23.312;2024-01-25T03:18:40;2.40;;;1.42;;
11123;SDS011;5616;42.692;23.312;2024-01-25T03:21:05;2.97;;;1.08;;
11123;SDS011;5616;42.692;23.312;2024-01-25T03:23:31;1.30;;;1.10;;
11123;SDS011;5616;42.692;23.312;2024-01-25T03:25:56;0.95;;;0.77;;
11123;SDS011;5616;42.692;23.312;2024-01-25T03:28:22;3.10;;;0.80;;
11123;SDS011;5616;42.692;23.312;2024-01-25T03:30:47;0.90;;;0.90;;
11123;SDS011;5616;42.692;23.312;2024-01-25T03:33:13;1.08;;;1.08;;
11123;SDS011;5616;42.692;23.312;2024-01-25T03:35:38;1.13;;;0.95;;
11123;SDS011;5616;42.692;23.312;2024-01-25T03:38:04;1.95;;;1.40;;
11123;SDS011;5616;42.692;23.312;2024-01-25T03:40:29;1.00;;;0.82;;
11123;SDS011;5616;42.692;23.312;2024-01-25T03:42:55;0.98;;;0.98;;
11123;SDS011;5616;42.692;23.312;2024-01-25T03:45:20;1.85;;;1.55;;
11123;SDS011;5616;42.692;23.312;2024-01-25T03:47:46;1.33;;;1.23;;
11123;SDS011;5616;42.692;23.312;2024-01-25T03:50:11;4.22;;;1.13;;
11123;SDS011;5616;42.692;23.312;2024-01-25T03:52:37;1.75;;;0.90;;
11123;SDS011;5616;42.692;23.312;2024-01-25T03:55:02;1.73;;;1.20;;
11123;SDS011;5616;42.692;23.312;2024-01-25T03:57:29;0.90;;;0.90;;
11123;SDS011;5616;42.692;23.312;2024-01-25T03:59:55;1.90;;;1.38;;
11123;SDS011;5616;42.692;23.312;2024-01-25T04:02:20;1.50;;;1.10;;
11123;SDS011;5616;42.692;23.312;2024-01-25T04:04:46;1.85;;;1.75;;
11123;SDS011;5616;42.692;23.312;2024-01-25T04:07:11;3.47;;;1.40;;
11123;SDS011;5616;42.692;23.312;2024-01-25T04:09:37;2.15;;;1.17;;
11123;SDS011;5616;42.692;23.312;2024-01-25T04:12:02;1.10;;;0.98;;
11123;SDS011;5616;42.692;23.312;2024-01-25T04:14:28;1.67;;;1.10;;
11123;SDS011;5616;42.692;23.312;2024-01-25T04:16:54;1.25;;;1.13;;
11123;SDS011;5616;42.692;23.312;2024-01-25T04:19:19;1.15;;;1.10;;
11123;SDS011;5616;42.692;23.312;2024-01-25T04:21:45;2.47;;;1.88;;
11123;SDS011;5616;42.692;23.312;2024-01-25T04:24:10;2.30;;;2.10;;
11123;SDS011;5616;42.692;23.312;2024-01-25T04:26:36;3.20;;;2.50;;
11123;SDS011;5616;42.692;23.312;2024-01-25T04:29:01;3.47;;;2.38;;
11123;SDS011;5616;42.692;23.312;2024-01-25T04:31:26;3.60;;;2.95;;
11123;SDS011;5616;42.692;23.312;2024-01-25T04:33:52;3.22;;;2.83;;
11123;SDS011;5616;42.692;23.312;2024-01-25T04:36:17;4.15;;;2.85;;
11123;SDS011;5616;42.692;23.312;2024-01-25T04:38:43;7.35;;;3.40;;
11123;SDS011;5616;42.692;23.312;2024-01-25T04:41:08;3.78;;;2.90;;
11123;SDS011;5616;42.692;23.312;2024-01-25T04:43:37;3.95;;;2.65;;
11123;SDS011;5616;42.692;23.312;2024-01-25T04:46:02;5.63;;;2.60;;
11123;SDS011;5616;42.692;23.312;2024-01-25T04:48:28;4.35;;;2.83;;
11123;SDS011;5616;42.692;23.312;2024-01-25T04:50:55;4.85;;;2.92;;
11123;SDS011;5616;42.692;23.312;2024-01-25T04:53:22;5.13;;;2.30;;
11123;SDS011;5616;42.692;23.312;2024-01-25T04:55:47;2.63;;;2.42;;
11123;SDS011;5616;42.692;23.312;2024-01-25T04:58:13;6.38;;;3.03;;
11123;SDS011;5616;42.692;23.312;2024-01-25T05:00:38;9.30;;;2.80;;
11123;SDS011;5616;42.692;23.312;2024-01-25T05:03:05;4.47;;;2.45;;
11123;SDS011;5616;42.692;23.312;2024-01-25T05:05:30;3.17;;;2.15;;
11123;SDS011;5616;42.692;23.312;2024-01-25T05:07:56;4.35;;;2.35;;
11123;SDS011;5616;42.692;23.312;2024-01-25T05:10:21;4.65;;;2.58;;
11123;SDS011;5616;42.692;23.312;2024-01-25T05:12:48;3.85;;;2.15;;
11123;SDS011;5616;42.692;23.312;2024-01-25T05:15:13;2.95;;;2.45;;
11123;SDS011;5616;42.692;23.312;2024-01-25T05:17:39;2.88;;;2.67;;
11123;SDS011;5616;42.692;23.312;2024-01-25T05:20:05;5.93;;;3.15;;
11123;SDS011;5616;42.692;23.312;2024-01-25T05:22:31;2.75;;;2.40;;
11123;SDS011;5616;42.692;23.312;2024-01-25T05:24:57;4.93;;;2.17;;
11123;SDS011;5616;42.692;23.312;2024-01-25T05:27:22;2.17;;;1.92;;
11123;SDS011;5616;42.692;23.312;2024-01-25T05:29:48;3.40;;;2.25;;
11123;SDS011;5616;42.692;23.312;2024-01-25T05:32:14;2.80;;;2.00;;
11123;SDS011;5616;42.692;23.312;2024-01-25T05:34:40;4.47;;;2.10;;
11123;SDS011;5616;42.692;23.312;2024-01-25T05:37:05;4.25;;;2.33;;
11123;SDS011;5616;42.692;23.312;2024-01-25T05:39:31;3.17;;;1.92;;
11123;SDS011;5616;42.692;23.312;2024-01-25T05:41:56;2.83;;;2.00;;
11123;SDS011;5616;42.692;23.312;2024-01-25T05:44:21;2.55;;;2.20;;
11123;SDS011;5616;42.692;23.312;2024-01-25T05:46:47;5.18;;;1.70;;
11123;SDS011;5616;42.692;23.312;2024-01-25T05:49:12;1.63;;;1.48;;
11123;SDS011;5616;42.692;23.312;2024-01-25T05:51:38;3.55;;;1.45;;
11123;SDS011;5616;42.692;23.312;2024-01-25T05:54:03;2.75;;;1.55;;
11123;SDS011;5616;42.692;23.312;2024-01-25T05:56:29;2.65;;;1.85;;
11123;SDS011;5616;42.692;23.312;2024-01-25T05:58:54;1.83;;;1.73;;
11123;SDS011;5616;42.692;23.312;2024-01-25T06:01:20;2.92;;;2.10;;
11123;SDS011;5616;42.692;23.312;2024-01-25T06:03:45;3.10;;;2.22;;
11123;SDS011;5616;42.692;23.312;2024-01-25T06:06:11;3.85;;;2.35;;
11123;SDS011;5616;42.692;23.312;2024-01-25T06:08:36;2.30;;;1.70;;
11123;SDS011;5616;42.692;23.312;2024-01-25T06:11:02;2.63;;;2.30;;
11123;SDS011;5616;42.692;23.312;2024-01-25T06:13:27;3.55;;;2.55;;
11123;SDS011;5616;42.692;23.312;2024-01-25T06:15:53;3.88;;;2.30;;
11123;SDS011;5616;42.692;23.312;2024-01-25T06:18:18;5.65;;;2.50;;
11123;SDS011;5616;42.692;23.312;2024-01-25T06:20:44;3.58;;;2.63;;
11123;SDS011;5616;42.692;23.312;2024-01-25T06:23:09;3.03;;;2.53;;
11123;SDS011;5616;42.692;23.312;2024-01-25T06:25:35;2.47;;;2.30;;
11123;SDS011;5616;42.692;23.312;2024-01-25T06:28:01;5.93;;;2.85;;
11123;SDS011;5616;42.692;23.312;2024-01-25T06:32:53;4.38;;;2.53;;
11123;SDS011;5616;42.692;23.312;2024-01-25T06:35:18;3.25;;;2.33;;
11123;SDS011;5616;42.692;23.312;2024-01-25T06:37:44;8.93;;;3.03;;
11123;SDS011;5616;42.692;23.312;2024-01-25T06:40:09;4.82;;;2.92;;
11123;SDS011;5616;42.692;23.312;2024-01-25T06:42:35;4.15;;;2.80;;
11123;SDS011;5616;42.692;23.312;2024-01-25T06:45:00;3.67;;;3.13;;
11123;SDS011;5616;42.692;23.312;2024-01-25T06:47:26;3.38;;;2.50;;
11123;SDS011;5616;42.692;23.312;2024-01-25T06:49:51;7.30;;;3.05;;
11123;SDS011;5616;42.692;23.312;2024-01-25T06:52:20;5.68;;;2.47;;
11123;SDS011;5616;42.692;23.312;2024-01-25T06:54:45;3.67;;;2.45;;
11123;SDS011;5616;42.692;23.312;2024-01-25T06:57:11;4.10;;;2.83;;
11123;SDS011;5616;42.692;23.312;2024-01-25T06:59:37;4.55;;;2.90;;
11123;SDS011;5616;42.692;23.312;2024-01-25T07:02:02;3.33;;;2.70;;
11123;SDS011;5616;42.692;23.312;2024-01-25T07:04:28;5.25;;;3.75;;
11123;SDS011;5616;42.692;23.312;2024-01-25T07:06:54;4.43;;;2.97;;
11123;SDS011;5616;42.692;23.312;2024-01-25T07:09:20;7.00;;;3.13;;
11123;SDS011;5616;42.692;23.312;2024-01-25T07:11:46;5.03;;;3.92;;
11123;SDS011;5616;42.692;23.312;2024-01-25T07:14:12;6.80;;;3.22;;
11123;SDS011;5616;42.692;23.312;2024-01-25T07:16:37;5.63;;;2.55;;
11123;SDS011;5616;42.692;23.312;2024-01-25T07:19:03;3.58;;;2.78;;
11123;SDS011;5616;42.692;23.312;2024-01-25T07:21:28;3.25;;;2.65;;
11123;SDS011;5616;42.692;23.312;2024-01-25T07:23:58;5.57;;;2.35;;
11123;SDS011;5616;42.692;23.312;2024-01-25T07:26:28;4.82;;;2.63;;
11123;SDS011;5616;42.692;23.312;2024-01-25T07:28:53;7.70;;;3.65;;
11123;SDS011;5616;42.692;23.312;2024-01-25T07:31:24;2.65;;;1.92;;
11123;SDS011;5616;42.692;23.312;2024-01-25T07:33:50;4.55;;;2.28;;
11123;SDS011;5616;42.692;23.312;2024-01-25T07:36:16;4.80;;;2.60;;
11123;SDS011;5616;42.692;23.312;2024-01-25T07:38:43;4.70;;;2.38;;
11123;SDS011;5616;42.692;23.312;2024-01-25T07:41:09;5.80;;;2.25;;
11123;SDS011;5616;42.692;23.312;2024-01-25T07:43:35;5.00;;;2.47;;
11123;SDS011;5616;42.692;23.312;2024-01-25T07:46:00;7.88;;;2.88;;
11123;SDS011;5616;42.692;23.312;2024-01-25T07:48:26;6.18;;;2.55;;
11123;SDS011;5616;42.692;23.312;2024-01-25T07:50:51;3.17;;;1.95;;
11123;SDS011;5616;42.692;23.312;2024-01-25T07:53:16;5.03;;;2.97;;
11123;SDS011;5616;42.692;23.312;2024-01-25T07:55:42;4.70;;;2.20;;
11123;SDS011;5616;42.692;23.312;2024-01-25T07:58:08;4.78;;;3.17;;
11123;SDS011;5616;42.692;23.312;2024-01-25T08:00:33;6.28;;;3.10;;
11123;SDS011;5616;42.692;23.312;2024-01-25T08:02:59;5.78;;;2.88;;
11123;SDS011;5616;42.692;23.312;2024-01-25T08:05:24;4.07;;;2.83;;
11123;SDS011;5616;42.692;23.312;2024-01-25T08:07:50;7.82;;;3.30;;
11123;SDS011;5616;42.692;23.312;2024-01-25T08:10:15;4.78;;;2.85;;
11123;SDS011;5616;42.692;23.312;2024-01-25T08:12:41;5.63;;;3.08;;
11123;SDS011;5616;42.692;23.312;2024-01-25T08:15:09;4.22;;;3.00;;
11123;SDS011;5616;42.692;23.312;2024-01-25T08:20:02;11.48;;;4.25;;
11123;SDS011;5616;42.692;23.312;2024-01-25T08:22:27;4.75;;;3.47;;
11123;SDS011;5616;42.692;23.312;2024-01-25T08:24:53;4.38;;;3.60;;
11123;SDS011;5616;42.692;23.312;2024-01-25T08:27:19;6.75;;;3.88;;
11123;SDS011;5616;42.692;23.312;2024-01-25T08:29:44;7.28;;;3.28;;
11123;SDS011;5616;42.692;23.312;2024-01-25T08:32:10;7.28;;;3.60;;
11123;SDS011;5616;42.692;23.312;2024-01-25T08:34:35;4.50;;;3.15;;
11123;SDS011;5616;42.692;23.312;2024-01-25T08:37:01;7.95;;;4.57;;
11123;SDS011;5616;42.692;23.312;2024-01-25T08:39:26;9.52;;;5.07;;
11123;SDS011;5616;42.692;23.312;2024-01-25T08:41:52;8.02;;;5.50;;
11123;SDS011;5616;42.692;23.312;2024-01-25T08:44:18;6.03;;;3.38;;
11123;SDS011;5616;42.692;23.312;2024-01-25T08:46:44;7.03;;;4.03;;
11123;SDS011;5616;42.692;23.312;2024-01-25T08:49:09;11.23;;;4.32;;
11123;SDS011;5616;42.692;23.312;2024-01-25T08:51:37;8.30;;;4.50;;
11123;SDS011;5616;42.692;23.312;2024-01-25T08:54:03;4.60;;;3.55;;
11123;SDS011;5616;42.692;23.312;2024-01-25T08:56:29;6.82;;;3.55;;
11123;SDS011;5616;42.692;23.312;2024-01-25T08:58:54;4.82;;;2.78;;
11123;SDS011;5616;42.692;23.312;2024-01-25T09:01:20;7.57;;;4.50;;
11123;SDS011;5616;42.692;23.312;2024-01-25T09:03:46;5.25;;;2.75;;
11123;SDS011;5616;42.692;23.312;2024-01-25T09:06:12;7.15;;;3.00;;
11123;SDS011;5616;42.692;23.312;2024-01-25T09:08:37;5.10;;;3.05;;
11123;SDS011;5616;42.692;23.312;2024-01-25T09:11:03;7.03;;;3.67;;
11123;SDS011;5616;42.692;23.312;2024-01-25T09:13:29;8.38;;;3.42;;
11123;SDS011;5616;42.692;23.312;2024-01-25T09:15:55;6.90;;;2.90;;
11123;SDS011;5616;42.692;23.312;2024-01-25T09:18:21;4.53;;;2.90;;
11123;SDS011;5616;42.692;23.312;2024-01-25T09:20:46;4.65;;;3.10;;
11123;SDS011;5616;42.692;23.312;2024-01-25T09:23:14;7.07;;;3.22;;
11123;SDS011;5616;42.692;23.312;2024-01-25T09:25:43;9.38;;;4.03;;
11123;SDS011;5616;42.692;23.312;2024-01-25T09:28:09;8.20;;;3.38;;
11123;SDS011;5616;42.692;23.312;2024-01-25T09:30:37;6.80;;;3.55;;
11123;SDS011;5616;42.692;23.312;2024-01-25T09:33:06;9.93;;;4.28;;
11123;SDS011;5616;42.692;23.312;2024-01-25T09:35:32;11.65;;;4.05;;
11123;SDS011;5616;42.692;23.312;2024-01-25T09:37:58;7.15;;;3.83;;
11123;SDS011;5616;42.692;23.312;2024-01-25T09:40:23;10.52;;;4.93;;
11123;SDS011;5616;42.692;23.312;2024-01-25T09:42:49;8.43;;;5.40;;
11123;SDS011;5616;42.692;23.312;2024-01-25T09:45:17;9.07;;;4.00;;
11123;SDS011;5616;42.692;23.312;2024-01-25T09:47:46;12.25;;;4.38;;
11123;SDS011;5616;42.692;23.312;2024-01-25T09:50:13;6.20;;;3.85;;
11123;SDS011;5616;42.692;23.312;2024-01-25T09:52:39;5.90;;;3.90;;
11123;SDS011;5616;42.692;23.312;2024-01-25T09:55:14;7.05;;;3.67;;
11123;SDS011;5616;42.692;23.312;2024-01-25T09:57:45;5.00;;;3.67;;
11123;SDS011;5616;42.692;23.312;2024-01-25T10:00:14;4.95;;;2.70;;
11123;SDS011;5616;42.692;23.312;2024-01-25T10:02:40;8.88;;;3.70;;
11123;SDS011;5616;42.692;23.312;2024-01-25T10:05:06;6.72;;;2.97;;
11123;SDS011;5616;42.692;23.312;2024-01-25T10:07:41;6.68;;;3.05;;
11123;SDS011;5616;42.692;23.312;2024-01-25T10:10:08;13.95;;;3.85;;
11123;SDS011;5616;42.692;23.312;2024-01-25T10:12:35;11.18;;;4.15;;
11123;SDS011;5616;42.692;23.312;2024-01-25T10:15:02;5.60;;;3.25;;
11123;SDS011;5616;42.692;23.312;2024-01-25T10:17:29;7.10;;;3.20;;
11123;SDS011;5616;42.692;23.312;2024-01-25T10:19:55;8.50;;;3.80;;
11123;SDS011;5616;42.692;23.312;2024-01-25T10:22:21;6.68;;;3.55;;
11123;SDS011;5616;42.692;23.312;2024-01-25T10:24:46;10.52;;;3.58;;
11123;SDS011;5616;42.692;23.312;2024-01-25T10:27:15;10.63;;;3.72;;
11123;SDS011;5616;42.692;23.312;2024-01-25T10:29:41;8.32;;;3.80;;
11123;SDS011;5616;42.692;23.312;2024-01-25T10:32:08;10.40;;;4.47;;
11123;SDS011;5616;42.692;23.312;2024-01-25T10:34:37;4.30;;;3.42;;
11123;SDS011;5616;42.692;23.312;2024-01-25T10:37:06;10.38;;;3.17;;
11123;SDS011;5616;42.692;23.312;2024-01-25T10:39:33;7.97;;;4.07;;
11123;SDS011;5616;42.692;23.312;2024-01-25T10:41:59;12.85;;;4.00;;
11123;SDS011;5616;42.692;23.312;2024-01-25T10:44:25;5.13;;;3.63;;
11123;SDS011;5616;42.692;23.312;2024-01-25T10:46:51;8.13;;;3.90;;
11123;SDS011;5616;42.692;23.312;2024-01-25T10:49:19;8.40;;;3.80;;
11123;SDS011;5616;42.692;23.312;2024-01-25T10:51:44;5.75;;;3.97;;
11123;SDS011;5616;42.692;23.312;2024-01-25T10:56:42;6.60;;;3.60;;
11123;SDS011;5616;42.692;23.312;2024-01-25T10:59:08;3.05;;;2.47;;
11123;SDS011;5616;42.692;23.312;2024-01-25T11:01:34;5.30;;;3.60;;
11123;SDS011;5616;42.692;23.312;2024-01-25T11:04:00;6.57;;;3.15;;
11123;SDS011;5616;42.692;23.312;2024-01-25T11:06:26;4.10;;;2.53;;
11123;SDS011;5616;42.692;23.312;2024-01-25T11:09:03;3.95;;;2.60;;
11123;SDS011;5616;42.692;23.312;2024-01-25T11:11:32;4.85;;;2.75;;
11123;SDS011;5616;42.692;23.312;2024-01-25T11:13:58;7.35;;;3.25;;
11123;SDS011;5616;42.692;23.312;2024-01-25T11:16:31;7.32;;;2.70;;
11123;SDS011;5616;42.692;23.312;2024-01-25T11:18:59;8.52;;;3.88;;
11123;SDS011;5616;42.692;23.312;2024-01-25T11:24:21;5.72;;;3.38;;
11123;SDS011;5616;42.692;23.312;2024-01-25T11:26:48;10.88;;;3.00;;
11123;SDS011;5616;42.692;23.312;2024-01-25T11:29:18;6.38;;;2.63;;
11123;SDS011;5616;42.692;23.312;2024-01-25T11:31:47;5.28;;;2.47;;
11123;SDS011;5616;42.692;23.312;2024-01-25T11:34:13;9.38;;;2.90;;
11123;SDS011;5616;42.692;23.312;2024-01-25T11:39:08;7.72;;;3.30;;
11123;SDS011;5616;42.692;23.312;2024-01-25T11:41:35;5.97;;;3.15;;
11123;SDS011;5616;42.692;23.312;2024-01-25T11:44:01;9.13;;;3.00;;
11123;SDS011;5616;42.692;23.312;2024-01-25T11:46:28;9.35;;;3.75;;
11123;SDS011;5616;42.692;23.312;2024-01-25T11:48:55;10.23;;;3.00;;
11123;SDS011;5616;42.692;23.312;2024-01-25T11:51:20;4.78;;;2.70;;
11123;SDS011;5616;42.692;23.312;2024-01-25T11:53:46;9.60;;;2.22;;
11123;SDS011;5616;42.692;23.312;2024-01-25T11:56:15;6.78;;;2.80;;
11123;SDS011;5616;42.692;23.312;2024-01-25T11:58:48;5.38;;;2.22;;
11123;SDS011;5616;42.692;23.312;2024-01-25T12:01:14;7.63;;;2.40;;
11123;SDS011;5616;42.692;23.312;2024-01-25T12:03:40;6.35;;;2.40;;
11123;SDS011;5616;42.692;23.312;2024-01-25T12:06:06;5.90;;;2.30;;
11123;SDS011;5616;42.692;23.312;2024-01-25T12:08:34;4.93;;;2.50;;
11123;SDS011;5616;42.692;23.312;2024-01-25T12:11:07;4.78;;;2.60;;
11123;SDS011;5616;42.692;23.312;2024-01-25T12:13:34;4.97;;;2.22;;
11123;SDS011;5616;42.692;23.312;2024-01-25T12:16:00;7.97;;;2.83;;
11123;SDS011;5616;42.692;23.312;2024-01-25T12:18:28;4.03;;;2.30;;
11123;SDS011;5616;42.692;23.312;2024-01-25T12:20:57;6.85;;;3.22;;
11123;SDS011;5616;42.692;23.312;2024-01-25T12:23:29;6.65;;;3.13;;
11123;SDS011;5616;42.692;23.312;2024-01-25T12:25:58;6.45;;;2.70;;
11123;SDS011;5616;42.692;23.312;2024-01-25T12:28:25;10.30;;;3.50;;
11123;SDS011;5616;42.692;23.312;2024-01-25T12:30:52;7.03;;;2.83;;
11123;SDS011;5616;42.692;23.312;2024-01-25T12:33:17;5.50;;;3.15;;
11123;SDS011;5616;42.692;23.312;2024-01-25T12:35:43;5.05;;;3.03;;
11123;SDS011;5616;42.692;23.312;2024-01-25T12:38:09;8.38;;;2.85;;
11123;SDS011;5616;42.692;23.312;2024-01-25T12:40:34;8.48;;;3.03;;
11123;SDS011;5616;42.692;23.312;2024-01-25T12:43:00;6.70;;;3.05;;
11123;SDS011;5616;42.692;23.312;2024-01-25T12:45:25;6.78;;;2.72;;
11123;SDS011;5616;42.692;23.312;2024-01-25T12:47:51;8.20;;;3.78;;
11123;SDS011;5616;42.692;23.312;2024-01-25T12:50:16;11.10;;;3.50;;
11123;SDS011;5616;42.692;23.312;2024-01-25T12:52:41;8.07;;;2.55;;
11123;SDS011;5616;42.692;23.312;2024-01-25T12:55:07;6.32;;;3.15;;
11123;SDS011;5616;42.692;23.312;2024-01-25T12:57:33;6.60;;;2.28;;
11123;SDS011;5616;42.692;23.312;2024-01-25T12:59:59;11.93;;;4.40;;
11123;SDS011;5616;42.692;23.312;2024-01-25T13:02:25;4.57;;;2.33;;
11123;SDS011;5616;42.692;23.312;2024-01-25T13:04:50;4.70;;;2.63;;
11123;SDS011;5616;42.692;23.312;2024-01-25T13:07:15;4.80;;;1.77;;
11123;SDS011;5616;42.692;23.312;2024-01-25T13:09:41;2.83;;;2.53;;
11123;SDS011;5616;42.692;23.312;2024-01-25T13:12:06;3.67;;;2.38;;
11123;SDS011;5616;42.692;23.312;2024-01-25T13:14:32;5.38;;;2.30;;
11123;SDS011;5616;42.692;23.312;2024-01-25T13:16:58;7.45;;;1.90;;
11123;SDS011;5616;42.692;23.312;2024-01-25T13:19:24;3.90;;;2.13;;
11123;SDS011;5616;42.692;23.312;2024-01-25T13:21:49;7.40;;;2.50;;
11123;SDS011;5616;42.692;23.312;2024-01-25T13:24:15;4.10;;;2.40;;
11123;SDS011;5616;42.692;23.312;2024-01-25T13:26:40;4.32;;;1.88;;
11123;SDS011;5616;42.692;23.312;2024-01-25T13:29:06;5.45;;;2.63;;
11123;SDS011;5616;42.692;23.312;2024-01-25T13:31:31;5.47;;;2.33;;
11123;SDS011;5616;42.692;23.312;2024-01-25T13:33:57;5.57;;;2.50;;
11123;SDS011;5616;42.692;23.312;2024-01-25T13:36:22;5.47;;;2.03;;
11123;SDS011;5616;42.692;23.312;2024-01-25T13:38:48;4.78;;;2.50;;
11123;SDS011;5616;42.692;23.312;2024-01-25T13:41:13;8.30;;;2.90;;
11123;SDS011;5616;42.692;23.312;2024-01-25T13:43:39;6.30;;;2.92;;
11123;SDS011;5616;42.692;23.312;2024-01-25T13:46:04;5.55;;;2.67;;
11123;SDS011;5616;42.692;23.312;2024-01-25T13:48:30;5.40;;;2.80;;
11123;SDS011;5616;42.692;23.312;2024-01-25T13:50:55;6.40;;;2.45;;
11123;SDS011;5616;42.692;23.312;2024-01-25T13:53:21;8.73;;;2.75;;
11123;SDS011;5616;42.692;23.312;2024-01-25T13:55:46;4.90;;;2.72;;
11123;SDS011;5616;42.692;23.312;2024-01-25T13:58:12;6.47;;;3.47;;
11123;SDS011;5616;42.692;23.312;2024-01-25T14:00:37;6.60;;;3.47;;
11123;SDS011;5616;42.692;23.312;2024-01-25T14:03:02;5.57;;;2.55;;
11123;SDS011;5616;42.692;23.312;2024-01-25T14:05:28;6.65;;;3.10;;
11123;SDS011;5616;42.692;23.312;2024-01-25T14:07:54;4.00;;;3.22;;
11123;SDS011;5616;42.692;23.312;2024-01-25T14:10:19;9.00;;;3.20;;
11123;SDS011;5616;42.692;23.312;2024-01-25T14:12:45;6.30;;;2.60;;
11123;SDS011;5616;42.692;23.312;2024-01-25T14:15:11;6.82;;;2.72;;
11123;SDS011;5616;42.692;23.312;2024-01-25T14:17:37;8.63;;;4.03;;
11123;SDS011;5616;42.692;23.312;2024-01-25T14:20:03;8.57;;;3.70;;
11123;SDS011;5616;42.692;23.312;2024-01-25T14:22:30;7.60;;;3.33;;
11123;SDS011;5616;42.692;23.312;2024-01-25T14:24:55;8.35;;;2.90;;
11123;SDS011;5616;42.692;23.312;2024-01-25T14:27:21;8.80;;;4.03;;
11123;SDS011;5616;42.692;23.312;2024-01-25T14:29:47;7.55;;;3.88;;
11123;SDS011;5616;42.692;23.312;2024-01-25T14:32:12;6.50;;;3.55;;
11123;SDS011;5616;42.692;23.312;2024-01-25T14:34:38;7.90;;;4.43;;
11123;SDS011;5616;42.692;23.312;2024-01-25T14:37:05;6.45;;;3.13;;
11123;SDS011;5616;42.692;23.312;2024-01-25T14:39:31;7.80;;;3.45;;
11123;SDS011;5616;42.692;23.312;2024-01-25T14:41:56;5.93;;;3.47;;
11123;SDS011;5616;42.692;23.312;2024-01-25T14:44:21;13.05;;;3.15;;
11123;SDS011;5616;42.692;23.312;2024-01-25T14:46:47;10.70;;;3.20;;
11123;SDS011;5616;42.692;23.312;2024-01-25T14:49:12;11.00;;;3.40;;